createdAt,value
2019-03-17T00:00:58.056Z,2.50
2019-03-17T00:01:58.073Z,2.50
2019-03-17T00:02:58.064Z,2.60
2019-03-17T00:03:58.080Z,2.40
2019-03-17T00:04:58.237Z,2.50
2019-03-17T00:05:58.022Z,2.30
2019-03-17T00:06:58.010Z,2.50
2019-03-17T00:07:58.024Z,2.40
2019-03-17T00:08:58.009Z,2.30
2019-03-17T00:09:58.014Z,2.20
2019-03-17T00:10:58.000Z,2.20
2019-03-17T00:11:57.999Z,2.30
2019-03-17T00:12:57.996Z,2.50
2019-03-17T00:13:57.982Z,2.00
2019-03-17T00:15:05.038Z,2.20
2019-03-17T00:15:57.940Z,1.90
2019-03-17T00:16:57.948Z,2.30
2019-03-17T00:17:57.960Z,2.20
2019-03-17T00:18:57.954Z,2.10
2019-03-17T00:19:57.971Z,1.70
2019-03-17T00:20:57.909Z,2.10
2019-03-17T00:21:57.927Z,1.80
2019-03-17T00:22:57.926Z,2.30
2019-03-17T00:23:57.909Z,2.30
2019-03-17T00:25:08.485Z,2.40
2019-03-17T00:25:57.906Z,2.40
2019-03-17T00:26:57.877Z,2.50
2019-03-17T00:27:57.886Z,3.00
2019-03-17T00:28:57.860Z,2.30
2019-03-17T00:29:57.879Z,2.70
2019-03-17T00:30:57.852Z,2.50
2019-03-17T00:31:57.854Z,2.30
2019-03-17T00:32:57.896Z,2.80
2019-03-17T00:33:57.843Z,2.10
2019-03-17T00:34:57.829Z,2.60
2019-03-17T00:35:57.822Z,2.80
2019-03-17T00:36:57.808Z,2.70
2019-03-17T00:37:57.831Z,2.30
2019-03-17T00:38:57.799Z,2.70
2019-03-17T00:39:57.795Z,3.00
2019-03-17T00:40:57.804Z,2.50
2019-03-17T00:41:57.782Z,3.00
2019-03-17T00:42:57.782Z,2.60
2019-03-17T00:43:57.805Z,2.70
2019-03-17T00:44:57.769Z,3.00
2019-03-17T00:45:57.758Z,2.40
2019-03-17T00:46:57.742Z,3.00
2019-03-17T00:47:57.733Z,2.40
2019-03-17T00:48:57.727Z,2.50
2019-03-17T00:49:57.737Z,2.50
2019-03-17T00:50:57.749Z,2.50
2019-03-17T00:51:57.764Z,2.60
2019-03-17T00:52:57.722Z,2.40
2019-03-17T00:53:57.744Z,2.50
2019-03-17T00:54:57.750Z,2.40
2019-03-17T00:55:57.695Z,2.60
2019-03-17T00:56:57.705Z,2.90
2019-03-17T00:57:59.576Z,2.80
2019-03-17T00:58:57.673Z,2.50
2019-03-17T00:59:57.715Z,3.50
2019-03-17T01:00:57.656Z,2.80
2019-03-17T01:01:57.662Z,2.80
2019-03-17T01:02:57.663Z,2.90
2019-03-17T01:03:57.638Z,2.50
2019-03-17T01:04:57.629Z,2.40
2019-03-17T01:05:57.669Z,2.00
2019-03-17T01:06:57.625Z,2.50
2019-03-17T01:07:57.596Z,2.40
2019-03-17T01:08:57.609Z,2.30
2019-03-17T01:09:57.647Z,2.00
2019-03-17T01:10:57.589Z,1.90
2019-03-17T01:11:57.575Z,2.20
2019-03-17T01:12:57.591Z,2.00
2019-03-17T01:13:57.632Z,1.60
2019-03-17T01:14:57.570Z,1.60
2019-03-17T01:15:57.565Z,1.60
2019-03-17T01:16:57.604Z,1.60
2019-03-17T01:17:57.542Z,1.70
2019-03-17T01:18:57.556Z,1.70
2019-03-17T01:19:57.524Z,1.60
2019-03-17T01:20:57.530Z,1.90
2019-03-17T01:21:57.540Z,1.70
2019-03-17T01:22:57.502Z,1.70
2019-03-17T01:23:57.510Z,1.60
2019-03-17T01:24:57.503Z,1.90
2019-03-17T01:25:57.494Z,1.80
2019-03-17T01:26:57.502Z,1.70
2019-03-17T01:27:57.461Z,1.70
2019-03-17T01:28:57.457Z,1.90
2019-03-17T01:29:57.731Z,1.80
2019-03-17T01:30:57.453Z,1.90
2019-03-17T01:31:57.454Z,1.90
2019-03-17T01:32:57.447Z,1.70
2019-03-17T01:33:57.435Z,2.00
2019-03-17T01:35:08.597Z,1.70
2019-03-17T01:35:57.442Z,2.00
2019-03-17T01:36:57.428Z,2.00
2019-03-17T01:37:57.627Z,1.80
2019-03-17T01:38:57.462Z,2.10
2019-03-17T01:39:57.416Z,2.10
2019-03-17T01:40:57.409Z,2.10
2019-03-17T01:41:57.404Z,1.80
2019-03-17T01:42:57.424Z,2.00
2019-03-17T01:43:57.425Z,2.20
2019-03-17T01:44:57.378Z,2.30
2019-03-17T01:45:57.343Z,2.40
2019-03-17T01:46:57.350Z,2.10
2019-03-17T01:47:57.349Z,2.70
2019-03-17T01:48:57.358Z,2.10
2019-03-17T01:49:57.330Z,2.20
2019-03-17T01:50:57.335Z,2.00
2019-03-17T01:51:57.310Z,1.90
2019-03-17T01:52:57.326Z,2.00
2019-03-17T01:53:57.299Z,1.90
2019-03-17T01:54:57.312Z,2.50
2019-03-17T01:55:57.310Z,1.90
2019-03-17T01:56:57.308Z,2.20
2019-03-17T01:57:57.270Z,2.60
2019-03-17T01:58:57.287Z,2.00
2019-03-17T01:59:57.273Z,1.90
2019-03-17T02:00:57.274Z,2.00
2019-03-17T02:01:57.271Z,1.90
2019-03-17T02:02:57.240Z,2.10
2019-03-17T02:03:57.260Z,1.70
2019-03-17T02:04:57.238Z,1.90
2019-03-17T02:05:57.241Z,1.90
2019-03-17T02:06:57.236Z,1.60
2019-03-17T02:07:57.233Z,1.60
2019-03-17T02:08:57.220Z,1.30
2019-03-17T02:09:57.192Z,1.70
2019-03-17T02:10:57.213Z,1.60
2019-03-17T02:11:57.199Z,1.60
2019-03-17T02:12:57.204Z,1.70
2019-03-17T02:13:57.170Z,1.70
2019-03-17T02:14:57.170Z,1.40
2019-03-17T02:15:57.165Z,1.80
2019-03-17T02:16:57.236Z,1.50
2019-03-17T02:17:57.147Z,1.50
2019-03-17T02:18:57.154Z,1.30
2019-03-17T02:19:57.142Z,1.20
2019-03-17T02:20:57.131Z,1.30
2019-03-17T02:21:57.133Z,1.10
2019-03-17T02:22:57.161Z,1.20
2019-03-17T02:23:57.161Z,1.20
2019-03-17T02:24:57.111Z,1.20
2019-03-17T02:25:57.116Z,1.10
2019-03-17T02:26:57.097Z,1.30
2019-03-17T02:27:57.071Z,1.20
2019-03-17T02:28:57.087Z,1.60
2019-03-17T02:29:57.059Z,1.30
2019-03-17T02:30:57.114Z,1.80
2019-03-17T02:31:57.069Z,1.60
2019-03-17T02:32:57.099Z,1.20
2019-03-17T02:33:57.040Z,1.40
2019-03-17T02:34:57.051Z,1.30
2019-03-17T02:35:57.037Z,1.40
2019-03-17T02:36:57.023Z,1.20
2019-03-17T02:37:57.014Z,1.30
2019-03-17T02:38:57.022Z,1.60
2019-03-17T02:39:57.013Z,1.60
2019-03-17T02:40:57.009Z,1.60
2019-03-17T02:41:57.005Z,1.70
2019-03-17T02:42:56.981Z,1.60
2019-03-17T02:43:56.975Z,1.40
2019-03-17T02:44:57.007Z,1.40
2019-03-17T02:45:56.974Z,1.60
2019-03-17T02:46:56.962Z,1.80
2019-03-17T02:47:56.948Z,1.80
2019-03-17T02:48:56.967Z,1.80
2019-03-17T02:49:56.950Z,1.80
2019-03-17T02:50:56.962Z,1.60
2019-03-17T02:51:56.912Z,1.70
2019-03-17T02:52:56.939Z,1.90
2019-03-17T02:53:56.926Z,1.70
2019-03-17T02:54:56.914Z,2.00
2019-03-17T02:55:56.893Z,1.70
2019-03-17T02:56:56.894Z,1.70
2019-03-17T02:57:56.897Z,1.90
2019-03-17T02:58:56.900Z,2.00
2019-03-17T02:59:56.921Z,2.00
2019-03-17T03:00:56.931Z,2.10
2019-03-17T03:01:56.869Z,2.30
2019-03-17T03:02:56.848Z,2.40
2019-03-17T03:03:56.841Z,2.40
2019-03-17T03:04:56.820Z,2.60
2019-03-17T03:05:56.830Z,2.20
2019-03-17T03:06:56.822Z,2.50
2019-03-17T03:07:56.808Z,2.60
2019-03-17T03:08:56.809Z,3.00
2019-03-17T03:09:56.811Z,3.50
2019-03-17T03:10:56.783Z,3.30
2019-03-17T03:11:56.772Z,2.70
2019-03-17T03:12:56.836Z,2.60
2019-03-17T03:13:56.780Z,2.70
2019-03-17T03:14:56.771Z,2.40
2019-03-17T03:15:56.772Z,2.30
2019-03-17T03:16:56.774Z,2.60
2019-03-17T03:17:56.764Z,2.10
2019-03-17T03:18:56.755Z,2.40
2019-03-17T03:19:56.739Z,2.00
2019-03-17T03:20:56.740Z,2.20
2019-03-17T03:21:56.759Z,2.20
2019-03-17T03:22:56.738Z,2.50
2019-03-17T03:23:56.727Z,2.10
2019-03-17T03:24:56.694Z,2.10
2019-03-17T03:25:56.703Z,2.30
2019-03-17T03:26:56.709Z,2.20
2019-03-17T03:27:56.681Z,2.50
2019-03-17T03:28:56.684Z,2.30
2019-03-17T03:29:56.673Z,2.20
2019-03-17T03:30:56.704Z,2.20
2019-03-17T03:31:56.669Z,2.40
2019-03-17T03:32:56.662Z,1.80
2019-03-17T03:33:56.658Z,2.40
2019-03-17T03:34:56.673Z,2.30
2019-03-17T03:36:09.909Z,2.10
2019-03-17T03:36:56.609Z,2.10
2019-03-17T03:37:56.617Z,2.30
2019-03-17T03:38:56.610Z,2.30
2019-03-17T03:39:56.606Z,2.20
2019-03-17T03:40:56.586Z,2.30
2019-03-17T03:41:56.586Z,2.30
2019-03-17T03:42:56.569Z,3.00
2019-03-17T03:43:56.574Z,3.40
2019-03-17T03:44:56.620Z,2.90
2019-03-17T03:45:56.558Z,3.00
2019-03-17T03:46:56.558Z,3.20
2019-03-17T03:47:56.556Z,3.10
2019-03-17T03:48:56.527Z,3.60
2019-03-17T03:49:57.303Z,3.60
2019-03-17T03:50:56.541Z,3.50
2019-03-17T03:51:56.692Z,3.30
2019-03-17T03:52:56.512Z,3.70
2019-03-17T03:53:56.485Z,3.50
2019-03-17T03:54:56.493Z,3.20
2019-03-17T03:55:56.499Z,3.60
2019-03-17T03:56:56.488Z,3.70
2019-03-17T03:57:56.470Z,3.70
2019-03-17T03:58:56.486Z,3.70
2019-03-17T03:59:56.461Z,2.90
2019-03-17T04:00:56.456Z,3.60
2019-03-17T04:01:56.452Z,3.10
2019-03-17T04:02:56.456Z,3.40
2019-03-17T04:03:56.447Z,3.40
2019-03-17T04:04:56.442Z,4.10
2019-03-17T04:05:56.429Z,4.00
2019-03-17T04:06:56.439Z,3.60
2019-03-17T04:07:56.396Z,2.70
2019-03-17T04:08:56.423Z,2.70
2019-03-17T04:09:56.405Z,2.80
2019-03-17T04:10:56.384Z,2.30
2019-03-17T04:11:56.380Z,2.80
2019-03-17T04:12:56.382Z,2.40
2019-03-17T04:13:56.374Z,2.40
2019-03-17T04:14:56.366Z,2.60
2019-03-17T04:15:56.365Z,2.10
2019-03-17T04:16:56.357Z,2.40
2019-03-17T04:17:56.340Z,2.50
2019-03-17T04:18:56.390Z,2.00
2019-03-17T04:19:56.343Z,2.30
2019-03-17T04:20:56.332Z,2.00
2019-03-17T04:21:56.305Z,1.90
2019-03-17T04:22:56.306Z,2.10
2019-03-17T04:23:56.312Z,1.90
2019-03-17T04:24:56.280Z,2.20
2019-03-17T04:25:56.286Z,1.90
2019-03-17T04:26:56.301Z,2.30
2019-03-17T04:27:56.272Z,2.00
2019-03-17T04:28:56.303Z,2.00
2019-03-17T04:29:56.283Z,2.00
2019-03-17T04:30:56.259Z,2.30
2019-03-17T04:31:56.265Z,2.20
2019-03-17T04:32:56.252Z,2.10
2019-03-17T04:33:56.282Z,1.70
2019-03-17T04:34:56.242Z,2.00
2019-03-17T04:35:56.234Z,1.80
2019-03-17T04:36:56.205Z,1.60
2019-03-17T04:37:56.241Z,2.10
2019-03-17T04:38:56.213Z,1.70
2019-03-17T04:39:56.198Z,1.70
2019-03-17T04:40:56.192Z,1.70
2019-03-17T04:41:56.185Z,2.10
2019-03-17T04:42:56.166Z,2.00
2019-03-17T04:43:56.177Z,1.60
2019-03-17T04:44:56.165Z,1.50
2019-03-17T04:45:56.157Z,1.70
2019-03-17T04:46:56.166Z,1.40
2019-03-17T04:47:56.123Z,1.70
2019-03-17T04:48:56.232Z,1.40
2019-03-17T04:49:56.106Z,1.60
2019-03-17T04:50:56.104Z,1.50
2019-03-17T04:51:56.107Z,1.50
2019-03-17T04:52:56.094Z,1.50
2019-03-17T04:53:56.098Z,1.70
2019-03-17T04:54:56.092Z,1.50
2019-03-17T04:55:56.076Z,1.50
2019-03-17T04:56:56.081Z,1.70
2019-03-17T04:57:56.062Z,1.40
2019-03-17T04:58:56.057Z,1.60
2019-03-17T04:59:56.056Z,2.00
2019-03-17T05:00:56.042Z,1.70
2019-03-17T05:01:56.034Z,1.80
2019-03-17T05:02:56.037Z,1.70
2019-03-17T05:03:56.069Z,1.50
2019-03-17T05:04:56.028Z,1.80
2019-03-17T05:05:56.005Z,1.70
2019-03-17T05:06:55.991Z,1.90
2019-03-17T05:07:56.002Z,2.20
2019-03-17T05:08:55.973Z,2.00
2019-03-17T05:09:55.987Z,2.30
2019-03-17T05:10:55.966Z,2.20
2019-03-17T05:11:56.015Z,2.00
2019-03-17T05:12:55.980Z,2.30
2019-03-17T05:13:55.963Z,1.50
2019-03-17T05:14:55.994Z,1.70
2019-03-17T05:15:55.951Z,2.30
2019-03-17T05:16:55.977Z,1.80
2019-03-17T05:17:55.929Z,1.70
2019-03-17T05:18:55.925Z,2.20
2019-03-17T05:19:55.904Z,1.70
2019-03-17T05:20:55.912Z,1.80
2019-03-17T05:21:55.918Z,2.90
2019-03-17T05:22:55.902Z,1.60
2019-03-17T05:23:55.872Z,1.70
2019-03-17T05:24:55.882Z,2.00
2019-03-17T05:25:55.877Z,1.80
2019-03-17T05:26:55.883Z,2.00
2019-03-17T05:27:55.867Z,1.90
2019-03-17T05:28:55.840Z,1.80
2019-03-17T05:29:55.839Z,2.00
2019-03-17T05:30:55.820Z,2.60
2019-03-17T05:31:55.826Z,2.10
2019-03-17T05:32:55.847Z,1.70
2019-03-17T05:33:55.835Z,1.90
2019-03-17T05:34:55.793Z,2.30
2019-03-17T05:35:55.811Z,2.20
2019-03-17T05:37:05.291Z,2.10
2019-03-17T05:37:55.794Z,1.90
2019-03-17T05:38:55.783Z,1.70
2019-03-17T05:39:55.791Z,2.10
2019-03-17T05:40:55.770Z,2.00
2019-03-17T05:41:55.809Z,1.90
2019-03-17T05:42:55.783Z,1.80
2019-03-17T05:43:55.743Z,1.80
2019-03-17T05:44:55.737Z,1.90
2019-03-17T05:45:55.734Z,2.10
2019-03-17T05:46:55.724Z,2.10
2019-03-17T05:47:55.705Z,1.90
2019-03-17T05:48:55.713Z,2.50
2019-03-17T05:49:55.699Z,2.10
2019-03-17T05:50:55.697Z,2.60
2019-03-17T05:51:55.691Z,3.50
2019-03-17T05:52:55.703Z,2.80
2019-03-17T05:53:55.692Z,2.30
2019-03-17T05:54:55.685Z,2.40
2019-03-17T05:55:55.686Z,2.60
2019-03-17T05:56:55.648Z,2.30
2019-03-17T05:57:55.651Z,2.30
2019-03-17T05:58:55.681Z,2.60
2019-03-17T05:59:55.650Z,3.40
2019-03-17T06:00:55.632Z,2.50
2019-03-17T06:01:55.610Z,2.40
2019-03-17T06:02:55.630Z,2.50
2019-03-17T06:03:55.616Z,2.30
2019-03-17T06:04:55.612Z,2.40
2019-03-17T06:05:55.603Z,2.40
2019-03-17T06:06:55.582Z,2.20
2019-03-17T06:07:55.567Z,2.30
2019-03-17T06:08:55.572Z,2.80
2019-03-17T06:09:55.577Z,2.30
2019-03-17T06:10:55.556Z,2.50
2019-03-17T06:11:55.601Z,2.50
2019-03-17T06:12:55.545Z,2.60
2019-03-17T06:13:55.534Z,2.50
2019-03-17T06:14:55.537Z,2.20
2019-03-17T06:15:55.526Z,2.40
2019-03-17T06:16:55.517Z,2.30
2019-03-17T06:17:55.523Z,2.20
2019-03-17T06:18:55.501Z,2.50
2019-03-17T06:19:55.506Z,2.40
2019-03-17T06:20:55.481Z,2.70
2019-03-17T06:21:55.476Z,2.80
2019-03-17T06:22:55.534Z,2.40
2019-03-17T06:23:55.486Z,2.40
2019-03-17T06:24:55.581Z,2.60
2019-03-17T06:25:55.468Z,2.40
2019-03-17T06:26:55.452Z,2.30
2019-03-17T06:27:55.498Z,2.60
2019-03-17T06:28:55.424Z,2.80
2019-03-17T06:29:55.440Z,2.30
2019-03-17T06:30:55.404Z,2.90
2019-03-17T06:31:55.407Z,2.90
2019-03-17T06:32:55.419Z,2.60
2019-03-17T06:33:55.416Z,2.60
2019-03-17T06:34:55.444Z,2.90
2019-03-17T06:35:55.534Z,3.10
2019-03-17T06:36:55.386Z,3.20
2019-03-17T06:37:55.405Z,2.90
2019-03-17T06:38:55.353Z,2.70
2019-03-17T06:39:55.358Z,2.70
2019-03-17T06:40:55.370Z,3.10
2019-03-17T06:41:55.361Z,3.00
2019-03-17T06:42:55.338Z,2.90
2019-03-17T06:43:55.312Z,3.40
2019-03-17T06:44:55.319Z,2.90
2019-03-17T06:45:55.363Z,2.90
2019-03-17T06:46:55.304Z,2.90
2019-03-17T06:47:55.309Z,2.80
2019-03-17T06:48:55.325Z,2.70
2019-03-17T06:49:55.282Z,3.00
2019-03-17T06:50:55.293Z,2.80
2019-03-17T06:51:55.472Z,2.70
2019-03-17T06:52:55.274Z,3.10
2019-03-17T06:53:56.709Z,2.80
2019-03-17T06:54:55.248Z,2.70
2019-03-17T06:55:55.249Z,2.70
2019-03-17T06:56:55.246Z,2.40
2019-03-17T06:57:55.217Z,3.10
2019-03-17T06:58:55.237Z,3.00
2019-03-17T06:59:55.207Z,3.00
2019-03-17T07:00:55.222Z,2.50
2019-03-17T07:01:55.186Z,2.90
2019-03-17T07:02:55.351Z,2.80
2019-03-17T07:03:55.202Z,2.80
2019-03-17T07:04:55.178Z,2.90
2019-03-17T07:05:55.324Z,2.60
2019-03-17T07:06:55.187Z,3.20
2019-03-17T07:07:55.158Z,2.90
2019-03-17T07:08:55.168Z,2.30
2019-03-17T07:09:55.164Z,3.10
2019-03-17T07:10:55.152Z,2.50
2019-03-17T07:11:55.129Z,3.50
2019-03-17T07:12:55.140Z,3.30
2019-03-17T07:13:55.133Z,2.90
2019-03-17T07:14:55.116Z,2.90
2019-03-17T07:15:55.109Z,2.90
2019-03-17T07:16:55.096Z,3.00
2019-03-17T07:17:55.112Z,2.80
2019-03-17T07:18:55.086Z,2.80
2019-03-17T07:19:55.087Z,2.50
2019-03-17T07:20:55.091Z,2.60
2019-03-17T07:21:55.071Z,3.10
2019-03-17T07:22:55.059Z,3.10
2019-03-17T07:23:55.042Z,3.00
2019-03-17T07:24:55.044Z,2.80
2019-03-17T07:25:55.049Z,2.80
2019-03-17T07:26:55.035Z,2.50
2019-03-17T07:27:55.038Z,2.80
2019-03-17T07:28:55.042Z,2.10
2019-03-17T07:29:55.012Z,2.20
2019-03-17T07:30:55.021Z,2.90
2019-03-17T07:31:54.991Z,3.00
2019-03-17T07:32:55.041Z,2.30
2019-03-17T07:33:54.985Z,2.50
2019-03-17T07:34:54.983Z,2.20
2019-03-17T07:35:55.081Z,2.20
2019-03-17T07:36:54.972Z,2.50
2019-03-17T07:37:56.996Z,2.30
2019-03-17T07:38:54.962Z,2.20
2019-03-17T07:39:54.960Z,1.90
2019-03-17T07:40:54.946Z,2.50
2019-03-17T07:41:54.941Z,2.30
2019-03-17T07:42:54.914Z,2.30
2019-03-17T07:43:54.930Z,2.40
2019-03-17T07:44:54.922Z,2.10
2019-03-17T07:45:54.944Z,2.50
2019-03-17T07:46:54.911Z,2.10
2019-03-17T07:47:54.900Z,2.30
2019-03-17T07:48:54.883Z,2.60
2019-03-17T07:49:54.872Z,2.40
2019-03-17T07:50:54.878Z,2.10
2019-03-17T07:51:54.867Z,2.50
2019-03-17T07:52:54.910Z,2.80
2019-03-17T07:53:54.849Z,2.30
2019-03-17T07:54:54.844Z,2.70
2019-03-17T07:55:54.884Z,2.70
2019-03-17T07:56:54.834Z,2.40
2019-03-17T07:57:54.820Z,2.80
2019-03-17T07:58:54.852Z,2.50
2019-03-17T07:59:54.789Z,2.80
2019-03-17T08:00:54.782Z,2.50
2019-03-17T08:01:54.831Z,2.30
2019-03-17T08:02:54.785Z,2.50
2019-03-17T08:03:54.761Z,2.70
2019-03-17T08:04:54.776Z,2.60
2019-03-17T08:05:54.864Z,2.80
2019-03-17T08:06:54.747Z,2.80
2019-03-17T08:07:54.741Z,2.80
2019-03-17T08:08:54.761Z,2.90
2019-03-17T08:09:54.718Z,2.40
2019-03-17T08:10:54.762Z,2.80
2019-03-17T08:11:54.699Z,2.50
2019-03-17T08:12:54.714Z,2.60
2019-03-17T08:13:54.716Z,2.80
2019-03-17T08:14:57.550Z,2.50
2019-03-17T08:15:54.697Z,2.30
2019-03-17T08:16:54.719Z,2.10
2019-03-17T08:17:54.685Z,2.70
2019-03-17T08:18:54.668Z,3.10
2019-03-17T08:19:54.654Z,2.40
2019-03-17T08:20:54.700Z,2.40
2019-03-17T08:21:54.649Z,2.40
2019-03-17T08:22:54.690Z,2.90
2019-03-17T08:23:54.633Z,2.30
2019-03-17T08:24:54.628Z,2.50
2019-03-17T08:25:54.634Z,2.90
2019-03-17T08:26:54.624Z,3.00
2019-03-17T08:27:54.595Z,3.20
2019-03-17T08:28:54.602Z,3.20
2019-03-17T08:29:54.586Z,2.50
2019-03-17T08:30:54.602Z,2.80
2019-03-17T08:31:54.588Z,3.50
2019-03-17T08:32:54.588Z,8.40
2019-03-17T08:33:54.566Z,10.10
2019-03-17T08:34:54.547Z,13.20
2019-03-17T08:35:54.544Z,14.80
2019-03-17T08:36:54.559Z,12.30
2019-03-17T08:37:54.551Z,14.40
2019-03-17T08:38:54.578Z,14.10
2019-03-17T08:39:54.515Z,17.10
2019-03-17T08:40:54.505Z,13.40
2019-03-17T08:41:54.525Z,15.50
2019-03-17T08:42:54.498Z,16.00
2019-03-17T08:43:54.746Z,14.60
2019-03-17T08:44:54.489Z,13.30
2019-03-17T08:45:54.494Z,15.10
2019-03-17T08:46:54.472Z,12.30
2019-03-17T08:47:58.272Z,14.30
2019-03-17T08:48:54.462Z,11.80
2019-03-17T08:49:54.466Z,13.90
2019-03-17T08:50:54.459Z,13.70
2019-03-17T08:51:54.451Z,12.40
2019-03-17T08:52:54.434Z,13.80
2019-03-17T08:53:54.411Z,15.30
2019-03-17T08:54:54.491Z,15.90
2019-03-17T08:55:54.450Z,12.40
2019-03-17T08:56:54.384Z,12.10
2019-03-17T08:57:54.410Z,12.50
2019-03-17T08:58:54.388Z,11.90
2019-03-17T08:59:54.368Z,12.20
2019-03-17T09:00:54.390Z,12.70
2019-03-17T09:01:54.381Z,11.30
2019-03-17T09:02:54.376Z,11.90
2019-03-17T09:03:54.361Z,11.50
2019-03-17T09:04:54.351Z,12.20
2019-03-17T09:05:54.347Z,10.50
2019-03-17T09:06:54.342Z,11.30
2019-03-17T09:07:54.321Z,12.20
2019-03-17T09:08:54.332Z,9.50
2019-03-17T09:09:54.320Z,13.30
2019-03-17T09:10:54.342Z,12.80
2019-03-17T09:11:54.312Z,12.20
2019-03-17T09:12:54.292Z,13.00
2019-03-17T09:13:54.283Z,11.70
2019-03-17T09:14:54.264Z,12.30
2019-03-17T09:15:54.257Z,13.00
2019-03-17T09:16:54.312Z,10.20
2019-03-17T09:17:54.237Z,13.60
2019-03-17T09:18:54.246Z,10.80
2019-03-17T09:19:54.247Z,13.90
2019-03-17T09:20:54.239Z,19.30
2019-03-17T09:21:54.224Z,12.70
2019-03-17T09:22:54.227Z,16.10
2019-03-17T09:23:54.252Z,12.40
2019-03-17T09:24:54.195Z,12.80
2019-03-17T09:25:54.201Z,17.90
2019-03-17T09:26:54.210Z,17.60
2019-03-17T09:27:54.188Z,16.00
2019-03-17T09:28:54.164Z,17.30
2019-03-17T09:29:54.182Z,15.90
2019-03-17T09:30:54.166Z,17.60
2019-03-17T09:31:54.159Z,15.00
2019-03-17T09:32:54.154Z,17.10
2019-03-17T09:33:54.134Z,15.40
2019-03-17T09:34:54.154Z,16.70
2019-03-17T09:35:54.149Z,15.80
2019-03-17T09:36:54.117Z,14.30
2019-03-17T09:37:54.107Z,14.80
2019-03-17T09:38:54.121Z,15.50
2019-03-17T09:39:54.154Z,15.20
2019-03-17T09:40:54.098Z,15.10
2019-03-17T09:41:54.080Z,14.50
2019-03-17T09:42:54.102Z,15.50
2019-03-17T09:43:54.088Z,14.00
2019-03-17T09:44:54.082Z,14.60
2019-03-17T09:45:54.047Z,13.60
2019-03-17T09:46:54.060Z,12.40
2019-03-17T09:47:54.055Z,13.40
2019-03-17T09:48:54.052Z,13.40
2019-03-17T09:49:54.051Z,16.30
2019-03-17T09:50:54.042Z,13.60
2019-03-17T09:51:54.030Z,15.60
2019-03-17T09:52:54.031Z,13.80
2019-03-17T09:53:53.999Z,15.40
2019-03-17T09:54:54.019Z,14.40
2019-03-17T09:55:53.995Z,13.70
2019-03-17T09:56:53.978Z,14.80
2019-03-17T09:57:53.985Z,13.30
2019-03-17T09:58:53.995Z,12.70
2019-03-17T09:59:53.975Z,9.60
2019-03-17T10:00:53.966Z,11.70
2019-03-17T10:01:53.963Z,8.80
2019-03-17T10:02:53.996Z,9.60
2019-03-17T10:03:53.993Z,8.80
2019-03-17T10:04:53.949Z,12.00
2019-03-17T10:05:53.933Z,12.80
2019-03-17T10:06:53.923Z,7.90
2019-03-17T10:07:53.923Z,9.40
2019-03-17T10:08:59.976Z,9.90
2019-03-17T10:09:53.910Z,10.60
2019-03-17T10:10:53.914Z,8.60
2019-03-17T10:11:53.900Z,6.60
2019-03-17T10:12:53.894Z,9.70
2019-03-17T10:13:53.888Z,7.30
2019-03-17T10:14:53.899Z,7.30
2019-03-17T10:15:53.881Z,8.10
2019-03-17T10:16:53.855Z,8.00
2019-03-17T10:17:53.847Z,7.10
2019-03-17T10:18:53.841Z,8.60
2019-03-17T10:19:53.827Z,8.40
2019-03-17T10:20:53.834Z,9.30
2019-03-17T10:21:53.833Z,8.10
2019-03-17T10:22:53.818Z,9.40
2019-03-17T10:23:53.830Z,8.30
2019-03-17T10:24:53.823Z,8.60
2019-03-17T10:25:53.810Z,7.00
2019-03-17T10:26:53.812Z,8.30
2019-03-17T10:27:53.801Z,7.40
2019-03-17T10:28:53.781Z,7.60
2019-03-17T10:29:53.777Z,10.50
2019-03-17T10:31:12.998Z,10.60
2019-03-17T10:31:53.763Z,9.30
2019-03-17T10:32:53.800Z,6.80
2019-03-17T10:33:53.766Z,8.80
2019-03-17T10:34:53.745Z,6.50
2019-03-17T10:35:53.738Z,7.30
2019-03-17T10:36:53.742Z,7.00
2019-03-17T10:37:53.773Z,9.80
2019-03-17T10:38:53.733Z,8.20
2019-03-17T10:39:53.698Z,8.40
2019-03-17T10:40:53.685Z,9.80
2019-03-17T10:41:53.686Z,9.70
2019-03-17T10:42:53.708Z,9.50
2019-03-17T10:43:53.684Z,9.80
2019-03-17T10:44:53.703Z,8.30
2019-03-17T10:45:53.690Z,9.30
2019-03-17T10:46:53.710Z,8.10
2019-03-17T10:47:54.630Z,9.80
2019-03-17T10:48:53.651Z,10.90
2019-03-17T10:49:53.664Z,8.60
2019-03-17T10:50:53.645Z,8.20
2019-03-17T10:51:53.634Z,9.60
2019-03-17T10:52:53.647Z,11.30
2019-03-17T10:53:53.634Z,8.60
2019-03-17T10:54:53.613Z,9.80
2019-03-17T10:55:53.598Z,10.90
2019-03-17T10:56:53.619Z,10.20
2019-03-17T10:57:53.590Z,9.10
2019-03-17T10:58:53.603Z,9.10
2019-03-17T10:59:53.606Z,9.70
2019-03-17T11:00:53.588Z,9.40
2019-03-17T11:01:53.619Z,10.40
2019-03-17T11:02:53.575Z,10.70
2019-03-17T11:03:53.552Z,11.70
2019-03-17T11:04:53.540Z,11.90
2019-03-17T11:05:54.527Z,10.50
2019-03-17T11:06:53.539Z,8.20
2019-03-17T11:07:53.521Z,10.10
2019-03-17T11:08:53.527Z,10.20
2019-03-17T11:09:53.541Z,10.80
2019-03-17T11:10:53.521Z,12.10
2019-03-17T11:11:53.521Z,10.50
2019-03-17T11:12:53.508Z,10.40
2019-03-17T11:13:53.507Z,11.50
2019-03-17T11:14:53.540Z,10.30
2019-03-17T11:15:53.483Z,9.70
2019-03-17T11:16:53.490Z,9.20
2019-03-17T11:17:53.478Z,12.00
2019-03-17T11:18:53.457Z,11.30
2019-03-17T11:19:53.465Z,9.60
2019-03-17T11:20:53.475Z,10.60
2019-03-17T11:21:53.463Z,10.30
2019-03-17T11:22:53.437Z,10.30
2019-03-17T11:23:53.426Z,10.00
2019-03-17T11:24:53.417Z,11.60
2019-03-17T11:25:53.426Z,10.40
2019-03-17T11:26:55.636Z,9.80
2019-03-17T11:27:53.426Z,9.80
2019-03-17T11:28:53.410Z,13.50
2019-03-17T11:29:53.406Z,12.40
2019-03-17T11:30:53.399Z,12.80
2019-03-17T11:31:53.387Z,11.80
2019-03-17T11:32:53.367Z,11.60
2019-03-17T11:33:53.375Z,10.60
2019-03-17T11:34:53.422Z,10.00
2019-03-17T11:35:53.387Z,11.00
2019-03-17T11:36:53.367Z,9.50
2019-03-17T11:37:53.364Z,9.40
2019-03-17T11:38:53.394Z,10.20
2019-03-17T11:39:53.358Z,10.90
2019-03-17T11:40:53.358Z,12.40
2019-03-17T11:41:53.320Z,12.30
2019-03-17T11:42:53.322Z,11.70
2019-03-17T11:43:53.303Z,10.60
2019-03-17T11:44:53.315Z,11.80
2019-03-17T11:45:53.317Z,11.20
2019-03-17T11:46:53.313Z,11.40
2019-03-17T11:47:53.291Z,11.80
2019-03-17T11:48:53.298Z,10.90
2019-03-17T11:49:53.268Z,11.50
2019-03-17T11:50:53.295Z,11.20
2019-03-17T11:51:53.288Z,11.30
2019-03-17T11:52:53.254Z,10.90
2019-03-17T11:53:53.266Z,10.90
2019-03-17T11:54:53.297Z,10.90
2019-03-17T11:55:53.257Z,11.20
2019-03-17T11:56:53.235Z,11.10
2019-03-17T11:57:53.240Z,10.50
2019-03-17T11:58:53.246Z,10.20
2019-03-17T11:59:53.235Z,11.40
2019-03-17T12:00:53.213Z,10.80
2019-03-17T12:01:53.226Z,11.10
2019-03-17T12:02:53.307Z,10.30
2019-03-17T12:03:53.195Z,9.60
2019-03-17T12:04:53.211Z,9.60
2019-03-17T12:05:53.201Z,9.30
2019-03-17T12:06:53.186Z,9.40
2019-03-17T12:07:53.425Z,9.10
2019-03-17T12:08:53.175Z,9.50
2019-03-17T12:09:53.164Z,9.40
2019-03-17T12:10:53.166Z,9.40
2019-03-17T12:11:53.166Z,9.90
2019-03-17T12:12:53.247Z,9.40
2019-03-17T12:13:53.139Z,9.70
2019-03-17T12:14:53.192Z,8.50
2019-03-17T12:15:53.129Z,9.10
2019-03-17T12:16:53.148Z,8.90
2019-03-17T12:17:53.137Z,9.50
2019-03-17T12:18:53.170Z,9.10
2019-03-17T12:19:53.125Z,8.80
2019-03-17T12:20:53.107Z,9.90
2019-03-17T12:21:53.119Z,9.50
2019-03-17T12:22:53.116Z,9.80
2019-03-17T12:23:53.091Z,9.50
2019-03-17T12:24:53.103Z,10.20
2019-03-17T12:25:53.077Z,10.60
2019-03-17T12:26:53.130Z,10.60
2019-03-17T12:27:53.064Z,10.50
2019-03-17T12:28:53.056Z,11.50
2019-03-17T12:29:53.102Z,10.90
2019-03-17T12:30:53.060Z,12.00
2019-03-17T12:31:53.056Z,11.60
2019-03-17T12:32:53.102Z,11.70
2019-03-17T12:33:53.069Z,11.60
2019-03-17T12:34:53.053Z,11.70
2019-03-17T12:35:53.050Z,11.20
2019-03-17T12:36:53.047Z,11.50
2019-03-17T12:37:53.042Z,10.90
2019-03-17T12:38:53.030Z,11.10
2019-03-17T12:40:02.054Z,11.30
2019-03-17T12:40:53.010Z,10.50
2019-03-17T12:41:53.008Z,11.50
2019-03-17T12:42:53.008Z,11.90
2019-03-17T12:43:53.005Z,12.20
2019-03-17T12:44:53.008Z,11.80
2019-03-17T12:45:52.985Z,11.60
2019-03-17T12:46:53.000Z,10.60
2019-03-17T12:47:52.972Z,10.20
2019-03-17T12:48:52.992Z,11.00
2019-03-17T12:49:52.969Z,9.90
2019-03-17T12:50:52.974Z,9.50
2019-03-17T12:51:52.976Z,9.70
2019-03-17T12:52:52.951Z,8.90
2019-03-17T12:53:52.965Z,10.40
2019-03-17T12:54:52.998Z,10.10
2019-03-17T12:55:52.951Z,9.30
2019-03-17T12:56:52.961Z,9.70
2019-03-17T12:57:52.951Z,9.50
2019-03-17T12:58:52.935Z,9.40
2019-03-17T12:59:52.916Z,9.60
2019-03-17T13:00:52.926Z,9.70
2019-03-17T13:01:52.934Z,10.00
2019-03-17T13:02:52.909Z,9.50
2019-03-17T13:03:52.978Z,10.50
2019-03-17T13:04:52.922Z,10.00
2019-03-17T13:05:52.931Z,10.70
2019-03-17T13:06:52.924Z,10.10
2019-03-17T13:07:52.909Z,10.00
2019-03-17T13:08:52.908Z,9.90
2019-03-17T13:09:52.937Z,10.90
2019-03-17T13:10:52.889Z,9.70
2019-03-17T13:11:52.872Z,9.50
2019-03-17T13:12:52.891Z,10.40